Time;durP1;ratioP1;P1;durP2;ratioP2;P2;SDS_P1;SDS_P2;PMS_P1;PMS_P2;Temp;Humidity;BMP_temperature;BMP_pressure;BME280_temperature;BME280_humidity;BME280_pressure;Samples;Min_cycle;Max_cycle;Signal;HPM_P1;HPM_P2
2022/03/28 00:01:17;;;;;;;26.87;16.17;;;8.80;99.90;;;;;;4157439;28;20240;-84
2022/03/28 00:03:18;;;;;;;29.00;16.83;;;8.90;99.90;;;;;;4158564;28;20454;-83
2022/03/28 00:05:20;;;;;;;27.97;17.03;;;8.90;99.90;;;;;;4162135;28;20463;-84
2022/03/28 00:07:22;;;;;;;27.83;16.93;;;8.80;99.90;;;;;;4159377;28;20496;-83
2022/03/28 00:09:24;;;;;;;28.73;17.07;;;9.00;99.90;;;;;;4145467;28;20570;-83
2022/03/28 00:11:27;;;;;;;27.70;16.97;;;8.70;99.90;;;;;;4129729;28;20506;-86
2022/03/28 00:13:28;;;;;;;31.63;18.47;;;8.60;99.90;;;;;;4135068;28;20796;-84
2022/03/28 00:15:30;;;;;;;30.63;18.37;;;8.60;99.90;;;;;;4144763;28;20465;-82
2022/03/28 00:17:32;;;;;;;30.87;18.23;;;8.60;99.90;;;;;;4138041;28;20503;-85
2022/03/28 00:19:34;;;;;;;29.63;18.03;;;8.60;99.90;;;;;;4150343;28;20493;-82
2022/03/28 00:21:36;;;;;;;30.90;19.13;;;8.60;99.90;;;;;;4150813;28;20559;-85
2022/03/28 00:23:38;;;;;;;30.00;18.53;;;8.90;99.90;;;;;;4144184;28;20461;-86
2022/03/28 00:25:40;;;;;;;30.37;19.00;;;8.50;99.90;;;;;;4143741;28;20643;-85
2022/03/28 00:27:43;;;;;;;32.23;18.93;;;8.50;99.90;;;;;;4129242;28;21199;-86
2022/03/28 00:29:45;;;;;;;33.23;19.20;;;8.50;99.90;;;;;;4140131;28;20457;-83
2022/03/28 00:31:47;;;;;;;32.17;19.70;;;8.90;99.90;;;;;;4144970;28;20443;-86
2022/03/28 00:33:49;;;;;;;32.57;19.67;;;8.40;99.90;;;;;;4139822;28;20464;-83
2022/03/28 00:35:51;;;;;;;35.37;21.20;;;8.40;99.90;;;;;;4133409;28;20819;-85
2022/03/28 00:37:53;;;;;;;32.90;20.90;;;8.40;99.90;;;;;;4145204;28;20494;-85
2022/03/28 00:39:55;;;;;;;34.23;21.37;;;8.30;99.90;;;;;;4137782;28;20492;-84
2022/03/28 00:41:57;;;;;;;33.73;20.97;;;8.90;99.90;;;;;;4138263;28;20468;-84
2022/03/28 00:44:00;;;;;;;33.13;21.07;;;8.30;99.90;;;;;;4140872;28;20484;-84
2022/03/28 00:46:03;;;;;;;36.13;22.20;;;8.20;99.90;;;;;;4154474;28;20527;-85
2022/03/28 00:48:06;;;;;;;36.07;22.57;;;9.40;99.90;;;;;;4159536;28;20806;-84
2022/03/28 00:50:09;;;;;;;35.70;22.63;;;8.20;99.90;;;;;;4145255;28;20498;-85
2022/03/28 00:52:11;;;;;;;36.37;22.73;;;8.10;99.90;;;;;;4144042;28;20463;-84
2022/03/28 00:54:13;;;;;;;35.07;21.90;;;8.10;99.90;;;;;;4145808;28;20998;-84
2022/03/28 00:56:15;;;;;;;37.33;23.23;;;8.10;99.90;;;;;;4143650;28;20461;-84
2022/03/28 00:58:17;;;;;;;39.87;23.80;;;8.10;99.90;;;;;;4143537;28;20516;-84
2022/03/28 01:00:21;;;;;;;40.33;24.30;;;8.40;99.90;;;;;;4138488;28;20999;-85
2022/03/28 01:02:23;;;;;;;38.80;23.93;;;8.00;99.90;;;;;;4143560;28;20478;-84
2022/03/28 01:04:25;;;;;;;39.13;23.00;;;8.00;99.90;;;;;;4143669;28;20466;-84
2022/03/28 01:06:26;;;;;;;39.67;23.77;;;8.30;99.90;;;;;;4146410;28;20450;-84
2022/03/28 01:08:29;;;;;;;40.67;24.67;;;7.90;99.90;;;;;;4147594;28;20552;-84
2022/03/28 01:10:31;;;;;;;38.87;24.23;;;7.90;99.90;;;;;;4148483;28;20492;-85
2022/03/28 01:12:34;;;;;;;38.73;24.03;;;7.90;99.90;;;;;;4148808;28;20999;-84
2022/03/28 01:14:37;;;;;;;42.20;25.00;;;7.80;99.90;;;;;;4164083;28;20887;-84
2022/03/28 01:18:55;;;;;;;39.90;23.80;;;7.80;99.90;;;;;;4131995;28;20858;-84
2022/03/28 01:20:59;;;;;;;39.17;24.10;;;7.80;99.90;;;;;;4137677;28;20491;-85
2022/03/28 01:23:01;;;;;;;37.40;23.60;;;7.80;99.90;;;;;;4140671;28;20545;-84
2022/03/28 01:25:05;;;;;;;37.73;23.17;;;7.70;99.90;;;;;;4146518;28;20473;-85
2022/03/28 01:27:08;;;;;;;39.00;23.70;;;7.70;99.90;;;;;;4145535;28;20474;-85
2022/03/28 01:29:10;;;;;;;37.80;23.47;;;7.70;99.90;;;;;;4146768;28;20446;-84
2022/03/28 01:31:11;;;;;;;38.40;23.07;;;7.70;99.90;;;;;;4145177;28;20539;-84
2022/03/28 01:33:13;;;;;;;39.00;23.93;;;7.60;99.90;;;;;;4147269;28;20488;-85
2022/03/28 01:35:29;;;;;;;36.90;22.63;;;7.60;99.90;;;;;;4135910;28;20482;-85
2022/03/28 01:37:32;;;;;;;39.60;24.17;;;7.60;99.90;;;;;;4129431;28;20587;-85
2022/03/28 01:39:34;;;;;;;37.43;23.40;;;7.60;99.90;;;;;;4139991;28;20508;-84
2022/03/28 01:41:36;;;;;;;39.33;24.33;;;7.50;99.90;;;;;;4144719;28;20481;-84
2022/03/28 01:43:37;;;;;;;38.03;23.37;;;7.50;99.90;;;;;;4142689;28;20465;-85
2022/03/28 01:45:40;;;;;;;39.53;23.97;;;7.50;99.90;;;;;;4143017;28;20468;-84
2022/03/28 01:47:42;;;;;;;38.90;23.30;;;7.70;99.90;;;;;;4154808;28;20967;-84
2022/03/28 01:49:44;;;;;;;38.70;23.57;;;7.80;99.90;;;;;;4149412;28;20462;-85
2022/03/28 01:51:47;;;;;;;40.13;23.50;;;7.40;99.90;;;;;;4138570;28;20929;-85
2022/03/28 01:53:50;;;;;;;41.70;25.43;;;7.40;99.90;;;;;;4140252;28;20492;-85
2022/03/28 01:55:52;;;;;;;41.70;24.90;;;7.40;99.90;;;;;;4152977;28;20879;-84
2022/03/28 01:57:54;;;;;;;42.03;24.70;;;7.40;99.90;;;;;;4145986;28;20548;-85
2022/03/28 01:59:56;;;;;;;40.47;24.50;;;7.30;99.90;;;;;;4145083;28;20885;-85
2022/03/28 02:01:57;;;;;;;46.87;27.77;;;7.40;99.90;;;;;;4145854;28;20512;-84
2022/03/28 02:04:00;;;;;;;44.10;26.50;;;7.30;99.90;;;;;;4152456;28;20466;-84
2022/03/28 02:06:02;;;;;;;44.47;25.97;;;7.30;99.90;;;;;;4142517;28;20461;-84
2022/03/28 02:08:03;;;;;;;44.20;26.73;;;7.20;99.90;;;;;;4145856;28;20472;-84
2022/03/28 02:10:08;;;;;;;43.43;25.73;;;7.20;99.90;;;;;;4146739;28;20951;-85
2022/03/28 02:12:10;;;;;;;44.00;25.53;;;7.20;99.90;;;;;;4142921;28;20533;-84
2022/03/28 02:14:12;;;;;;;43.00;26.70;;;7.20;99.90;;;;;;4140766;28;20532;-84
2022/03/28 02:16:14;;;;;;;47.87;27.30;;;8.10;99.90;;;;;;4157307;28;20535;-85
2022/03/28 02:18:16;;;;;;;45.10;25.97;;;7.20;99.90;;;;;;4154990;28;20508;-84
2022/03/28 02:20:18;;;;;;;42.87;26.07;;;7.10;99.90;;;;;;4133248;28;20594;-85
2022/03/28 02:22:19;;;;;;;40.80;24.90;;;7.50;99.90;;;;;;4138850;28;20469;-85
2022/03/28 02:24:21;;;;;;;41.23;25.57;;;7.10;99.90;;;;;;4145929;28;20470;-85
2022/03/28 02:26:24;;;;;;;43.27;24.67;;;7.00;99.90;;;;;;4146888;28;20492;-85
2022/03/28 02:28:27;;;;;;;43.37;24.63;;;7.00;99.90;;;;;;4137249;28;20509;-85
2022/03/28 02:30:28;;;;;;;42.87;25.23;;;7.00;99.90;;;;;;4129079;28;20499;-85
2022/03/28 02:32:30;;;;;;;43.53;25.63;;;7.00;99.90;;;;;;4132851;28;20473;-85
2022/03/28 02:34:32;;;;;;;40.83;24.73;;;7.30;99.90;;;;;;4146118;28;20477;-85
2022/03/28 02:36:34;;;;;;;41.37;24.63;;;6.90;99.90;;;;;;4143481;28;20989;-85
2022/03/28 02:38:35;;;;;;;42.47;25.33;;;6.90;99.90;;;;;;4146319;28;20492;-85
2022/03/28 02:40:37;;;;;;;43.80;26.30;;;6.90;99.90;;;;;;4146500;28;20483;-85
2022/03/28 02:42:40;;;;;;;41.97;25.13;;;7.00;99.90;;;;;;4146988;28;20486;-84
2022/03/28 02:44:42;;;;;;;47.27;26.37;;;6.80;99.90;;;;;;4136929;28;20475;-84
2022/03/28 02:46:44;;;;;;;42.83;25.77;;;6.80;99.90;;;;;;4146027;28;20510;-84
2022/03/28 02:48:46;;;;;;;46.10;27.07;;;6.80;99.90;;;;;;4146242;28;20865;-85
2022/03/28 02:50:49;;;;;;;48.17;27.60;;;6.80;99.90;;;;;;4146365;28;20471;-84
2022/03/28 02:52:51;;;;;;;50.37;28.57;;;6.80;99.90;;;;;;4134110;28;20473;-84
2022/03/28 02:54:53;;;;;;;48.40;27.70;;;7.00;99.90;;;;;;4145616;28;20893;-84
2022/03/28 02:56:54;;;;;;;47.73;27.43;;;6.80;99.90;;;;;;4140944;28;20911;-84
2022/03/28 02:58:58;;;;;;;47.57;28.00;;;6.70;99.90;;;;;;4152264;28;20471;-84
2022/03/28 03:00:59;;;;;;;47.63;27.87;;;6.70;99.90;;;;;;4145295;28;20510;-84
2022/03/28 03:03:01;;;;;;;48.77;28.57;;;6.70;99.90;;;;;;4146820;28;20527;-84
2022/03/28 03:05:03;;;;;;;49.00;27.60;;;6.70;99.90;;;;;;4146488;28;20938;-84
2022/03/28 03:07:06;;;;;;;50.33;28.10;;;6.70;99.90;;;;;;4143714;28;21268;-84
2022/03/28 03:09:08;;;;;;;49.77;28.53;;;6.20;99.90;;;;;;4134817;28;20486;-85
2022/03/28 03:11:09;;;;;;;49.67;29.20;;;6.60;99.90;;;;;;4133996;28;20487;-84
2022/03/28 03:13:11;;;;;;;46.83;27.53;;;6.50;99.90;;;;;;4144211;28;20478;-84
2022/03/28 03:15:14;;;;;;;46.30;26.77;;;6.60;99.90;;;;;;4145441;28;20465;-84
2022/03/28 03:17:16;;;;;;;46.00;27.40;;;6.50;99.90;;;;;;4144968;28;20499;-85
2022/03/28 03:19:18;;;;;;;45.37;27.27;;;6.50;99.90;;;;;;4146608;28;20469;-85
2022/03/28 03:21:20;;;;;;;47.87;27.67;;;6.50;99.90;;;;;;4152874;28;20466;-84
2022/03/28 03:23:22;;;;;;;50.93;29.20;;;6.50;99.90;;;;;;4142588;28;20475;-84
2022/03/28 03:25:24;;;;;;;50.43;28.10;;;6.50;99.90;;;;;;4145799;28;20472;-84
2022/03/28 03:27:25;;;;;;;47.63;27.73;;;6.40;99.90;;;;;;4144377;28;20460;-84
2022/03/28 03:29:29;;;;;;;49.17;29.57;;;6.40;99.90;;;;;;4147691;28;20521;-84
2022/03/28 03:31:32;;;;;;;49.23;28.67;;;6.40;99.90;;;;;;4144745;28;20502;-84
2022/03/28 03:33:34;;;;;;;52.27;30.07;;;6.40;99.90;;;;;;4151575;28;20466;-84
2022/03/28 03:35:36;;;;;;;50.87;28.73;;;6.90;99.90;;;;;;4146400;28;20467;-84
2022/03/28 03:37:39;;;;;;;50.97;29.43;;;6.30;99.90;;;;;;4151219;28;20491;-84
2022/03/28 03:39:40;;;;;;;51.33;29.83;;;6.30;99.90;;;;;;4144900;28;20503;-84
2022/03/28 03:41:42;;;;;;;50.70;28.27;;;6.10;99.90;;;;;;4131778;28;20875;-84
2022/03/28 03:43:44;;;;;;;52.37;29.13;;;6.30;99.90;;;;;;4151557;28;20475;-84
2022/03/28 03:45:46;;;;;;;54.90;30.13;;;6.30;99.90;;;;;;4150768;28;21014;-83
2022/03/28 03:47:49;;;;;;;49.83;28.37;;;6.30;99.90;;;;;;4145584;28;20460;-84
2022/03/28 03:49:52;;;;;;;51.87;30.17;;;6.30;99.90;;;;;;4138684;28;20477;-83
2022/03/28 03:51:54;;;;;;;51.90;30.03;;;6.20;99.90;;;;;;4143860;28;20537;-84
2022/03/28 03:53:56;;;;;;;50.53;29.17;;;6.90;99.90;;;;;;4148998;28;20486;-84
2022/03/28 03:55:59;;;;;;;52.43;28.70;;;6.20;99.90;;;;;;4137374;28;20473;-84
2022/03/28 03:58:00;;;;;;;55.37;31.20;;;6.20;99.90;;;;;;4143802;28;20493;-85
2022/03/28 04:00:03;;;;;;;52.17;29.97;;;6.20;99.90;;;;;;4150677;28;20478;-85
2022/03/28 04:02:05;;;;;;;52.60;30.30;;;6.10;99.90;;;;;;4161483;28;20448;-84
2022/03/28 04:04:12;;;;;;;54.73;30.90;;;6.10;99.90;;;;;;4161677;28;20432;-85
2022/03/28 04:06:14;;;;;;;50.50;29.83;;;6.10;99.90;;;;;;4145553;28;20487;-85
2022/03/28 04:08:16;;;;;;;56.23;31.03;;;6.10;99.90;;;;;;4153171;28;20479;-85
2022/03/28 04:10:17;;;;;;;56.27;30.97;;;6.10;99.90;;;;;;4138910;28;20560;-84
2022/03/28 04:12:19;;;;;;;52.07;30.03;;;6.00;99.90;;;;;;4144557;28;20840;-84
2022/03/28 04:14:21;;;;;;;54.43;30.53;;;6.00;99.90;;;;;;4145140;28;20457;-84
2022/03/28 04:16:23;;;;;;;52.00;30.13;;;6.00;99.90;;;;;;4144142;28;20455;-85
2022/03/28 04:18:25;;;;;;;55.30;30.97;;;6.00;99.90;;;;;;4144128;28;20612;-84
2022/03/28 04:20:29;;;;;;;59.47;32.70;;;6.00;99.90;;;;;;4132543;28;20498;-84
2022/03/28 04:22:31;;;;;;;56.50;31.83;;;6.00;99.90;;;;;;4133800;28;20874;-84
2022/03/28 04:24:33;;;;;;;55.23;31.70;;;6.00;99.90;;;;;;4145245;28;20478;-83
2022/03/28 04:26:35;;;;;;;59.10;32.17;;;5.90;99.90;;;;;;4146023;28;20484;-84
2022/03/28 04:28:37;;;;;;;56.40;31.67;;;5.90;99.90;;;;;;4146010;28;20498;-84
2022/03/28 04:30:39;;;;;;;60.33;32.97;;;5.90;99.90;;;;;;4141868;28;21286;-85
2022/03/28 04:32:41;;;;;;;58.53;32.90;;;5.90;99.90;;;;;;4143374;28;20452;-85
2022/03/28 04:34:43;;;;;;;62.47;33.97;;;6.20;99.90;;;;;;4144467;28;20457;-85
2022/03/28 04:36:46;;;;;;;57.37;32.53;;;5.80;99.90;;;;;;4144548;28;20456;-84
2022/03/28 04:38:48;;;;;;;58.00;32.67;;;5.80;99.90;;;;;;4145423;28;20555;-84
2022/03/28 04:40:50;;;;;;;59.53;32.63;;;5.80;99.90;;;;;;4143336;28;20507;-84
2022/03/28 04:42:52;;;;;;;60.17;33.17;;;5.80;99.90;;;;;;4132004;28;20449;-84
2022/03/28 04:44:53;;;;;;;63.07;35.63;;;5.80;99.90;;;;;;4131023;28;20489;-84
2022/03/28 04:46:55;;;;;;;64.30;35.47;;;5.80;99.90;;;;;;4142786;28;20996;-84
2022/03/28 04:48:57;;;;;;;63.97;33.90;;;5.70;99.90;;;;;;4148178;28;20948;-84
2022/03/28 04:50:59;;;;;;;63.17;34.40;;;5.70;99.90;;;;;;4152423;28;20486;-84
2022/03/28 04:53:02;;;;;;;63.70;34.70;;;5.70;99.90;;;;;;4148264;28;20550;-84
2022/03/28 04:55:05;;;;;;;58.93;32.07;;;5.70;99.90;;;;;;4156595;28;20470;-84
2022/03/28 04:57:07;;;;;;;60.10;32.90;;;5.70;99.90;;;;;;4164035;28;20464;-84
2022/03/28 04:59:11;;;;;;;57.17;32.20;;;5.70;99.90;;;;;;4147168;28;21005;-84
2022/03/28 05:01:13;;;;;;;61.60;33.17;;;5.70;99.90;;;;;;4156477;28;20506;-84
2022/03/28 05:03:14;;;;;;;59.17;32.80;;;5.70;99.90;;;;;;4149322;28;20466;-84
2022/03/28 05:05:16;;;;;;;60.10;33.27;;;5.90;99.90;;;;;;4149838;28;20464;-84
2022/03/28 05:07:25;;;;;;;60.97;32.70;;;5.50;99.90;;;;;;4149137;28;20459;-84
2022/03/28 05:09:28;;;;;;;59.73;34.10;;;5.70;99.90;;;;;;4131510;28;20575;-83
2022/03/28 05:11:30;;;;;;;59.70;33.03;;;5.70;99.90;;;;;;4143957;28;20826;-84
2022/03/28 05:13:32;;;;;;;57.63;32.70;;;5.60;99.90;;;;;;4147730;28;21029;-84
2022/03/28 05:15:34;;;;;;;62.43;33.87;;;5.60;99.90;;;;;;4146528;28;20459;-84
2022/03/28 05:17:36;;;;;;;59.10;32.80;;;5.60;99.90;;;;;;4139914;28;20513;-84
2022/03/28 05:19:38;;;;;;;63.53;33.87;;;5.60;99.90;;;;;;4138707;28;20490;-84
2022/03/28 05:21:39;;;;;;;55.37;31.77;;;5.60;99.90;;;;;;4149518;28;20523;-84
2022/03/28 05:23:41;;;;;;;58.10;32.27;;;5.60;99.90;;;;;;4151107;28;20814;-84
2022/03/28 05:25:44;;;;;;;59.47;32.30;;;5.60;99.90;;;;;;4157001;28;20463;-84
2022/03/28 05:27:46;;;;;;;59.53;32.43;;;5.60;99.90;;;;;;4131723;28;20490;-84
2022/03/28 05:29:49;;;;;;;58.27;32.30;;;5.80;99.90;;;;;;4144687;28;20465;-84
2022/03/28 05:31:51;;;;;;;61.20;33.73;;;5.60;99.90;;;;;;4153394;28;20505;-84
2022/03/28 05:33:52;;;;;;;58.93;32.47;;;5.60;99.90;;;;;;4145475;28;20485;-84
2022/03/28 05:35:55;;;;;;;57.70;32.93;;;5.60;99.90;;;;;;4129356;28;20458;-84
2022/03/28 05:37:57;;;;;;;60.93;32.33;;;5.70;99.90;;;;;;4130601;28;20452;-84
2022/03/28 05:39:59;;;;;;;61.77;33.80;;;5.60;99.90;;;;;;4144528;28;20518;-84
2022/03/28 05:42:02;;;;;;;60.10;32.53;;;5.50;99.90;;;;;;4148213;28;20458;-84
2022/03/28 05:44:04;;;;;;;61.20;33.23;;;5.60;99.90;;;;;;4142835;28;20489;-84
2022/03/28 05:46:07;;;;;;;65.47;33.73;;;5.60;99.90;;;;;;4146499;28;20733;-84
2022/03/28 05:48:09;;;;;;;57.03;31.60;;;5.50;99.90;;;;;;4162598;28;20438;-84
2022/03/28 05:50:11;;;;;;;61.27;33.37;;;5.60;99.90;;;;;;4149053;28;20471;-84
2022/03/28 05:52:12;;;;;;;57.63;31.57;;;5.60;99.90;;;;;;4140069;28;20486;-84
2022/03/28 05:54:14;;;;;;;59.70;32.87;;;5.50;99.90;;;;;;4134959;28;20518;-84
2022/03/28 05:56:16;;;;;;;53.87;28.97;;;5.60;99.90;;;;;;4148878;28;20477;-84
2022/03/28 05:58:19;;;;;;;57.17;31.37;;;6.20;99.90;;;;;;4157862;28;20491;-84
2022/03/28 06:00:21;;;;;;;62.10;32.93;;;5.60;99.90;;;;;;4145658;28;20497;-84
2022/03/28 06:02:23;;;;;;;59.53;30.33;;;5.60;99.90;;;;;;4142216;28;20570;-84
2022/03/28 06:04:25;;;;;;;56.67;31.17;;;6.00;99.90;;;;;;4147256;28;20891;-84
2022/03/28 06:06:27;;;;;;;58.70;31.33;;;5.60;99.90;;;;;;4141417;28;20549;-84
2022/03/28 06:08:29;;;;;;;59.40;31.87;;;5.60;99.90;;;;;;4145464;28;20486;-84
2022/03/28 06:10:31;;;;;;;57.97;30.83;;;5.60;99.90;;;;;;4141212;28;20500;-84
2022/03/28 06:12:32;;;;;;;62.53;33.27;;;5.60;99.90;;;;;;4144624;28;21011;-84
2022/03/28 06:14:35;;;;;;;60.00;31.43;;;5.60;99.90;;;;;;4147304;28;20478;-84
2022/03/28 06:16:37;;;;;;;61.13;31.77;;;5.60;99.90;;;;;;4140316;28;21003;-84
2022/03/28 06:18:39;;;;;;;57.90;31.33;;;5.60;99.90;;;;;;4142177;28;20881;-84
2022/03/28 06:20:41;;;;;;;61.00;32.70;;;5.60;99.90;;;;;;4145717;28;20976;-85
2022/03/28 06:22:43;;;;;;;59.33;32.10;;;5.60;99.90;;;;;;4144688;28;20475;-84
2022/03/28 06:24:45;;;;;;;58.03;31.47;;;5.50;99.90;;;;;;4143711;28;20455;-84
2022/03/28 06:26:47;;;;;;;57.50;31.50;;;5.60;99.90;;;;;;4142649;28;20561;-85
2022/03/28 06:28:51;;;;;;;55.43;30.83;;;5.70;99.90;;;;;;4144908;28;20456;-84
2022/03/28 06:30:55;;;;;;;58.70;31.93;;;5.70;99.90;;;;;;4142973;28;20621;-84
2022/03/28 06:32:57;;;;;;;64.33;34.57;;;5.70;99.90;;;;;;4148378;28;20474;-84
2022/03/28 06:34:59;;;;;;;66.93;34.50;;;5.70;99.90;;;;;;4146740;28;20585;-84
2022/03/28 06:37:00;;;;;;;62.00;33.47;;;5.80;99.90;;;;;;4146640;28;20527;-84
2022/03/28 06:39:03;;;;;;;61.63;32.67;;;5.80;99.90;;;;;;4149514;28;21032;-84
2022/03/28 06:41:05;;;;;;;61.87;32.50;;;5.80;99.90;;;;;;4139974;28;20494;-85
2022/03/28 06:43:06;;;;;;;58.50;31.47;;;5.80;99.90;;;;;;4145764;28;20452;-84
2022/03/28 06:45:10;;;;;;;59.87;32.83;;;5.80;99.90;;;;;;4142319;28;21130;-84
2022/03/28 06:47:13;;;;;;;57.53;31.97;;;5.90;99.90;;;;;;4144722;28;20478;-84
2022/03/28 06:49:15;;;;;;;60.60;32.63;;;5.90;99.90;;;;;;4144724;28;20882;-84
2022/03/28 06:51:17;;;;;;;57.87;31.13;;;5.90;99.90;;;;;;4143170;28;20497;-84
2022/03/28 06:53:19;;;;;;;64.03;33.20;;;6.00;99.90;;;;;;4145313;28;20592;-84
2022/03/28 06:55:21;;;;;;;63.83;32.50;;;6.00;99.90;;;;;;4144340;28;20491;-84
2022/03/28 06:57:23;;;;;;;61.97;32.93;;;6.10;99.90;;;;;;4144991;28;20784;-84
2022/03/28 06:59:25;;;;;;;57.03;30.63;;;6.10;99.90;;;;;;4151398;28;20579;-84
2022/03/28 07:01:27;;;;;;;62.00;32.50;;;6.50;99.90;;;;;;4143662;28;20505;-84
2022/03/28 07:03:30;;;;;;;60.00;31.47;;;6.20;99.90;;;;;;4145639;28;20461;-84
2022/03/28 07:05:32;;;;;;;62.27;31.57;;;6.30;99.90;;;;;;4145504;28;20469;-84
2022/03/28 07:07:42;;;;;;;58.20;31.40;;;7.00;99.90;;;;;;4155532;28;20456;-84
2022/03/28 07:09:44;;;;;;;59.17;31.17;;;6.30;99.90;;;;;;4157180;28;20457;-84
2022/03/28 07:11:46;;;;;;;56.80;30.67;;;6.40;99.90;;;;;;4159151;28;20504;-85
2022/03/28 07:13:48;;;;;;;55.17;30.67;;;6.50;99.90;;;;;;4162659;28;20532;-84
2022/03/28 07:15:50;;;;;;;56.07;30.73;;;6.50;99.90;;;;;;4152739;28;20491;-84
2022/03/28 07:17:54;;;;;;;52.57;29.17;;;6.60;99.90;;;;;;4142231;28;20553;-84
2022/03/28 07:19:57;;;;;;;52.50;29.40;;;6.70;99.90;;;;;;4145063;28;20497;-84
2022/03/28 07:21:59;;;;;;;51.20;29.03;;;6.70;99.90;;;;;;4143011;28;20462;-85
2022/03/28 07:24:01;;;;;;;56.90;30.50;;;6.80;99.90;;;;;;4146500;28;20462;-84
2022/03/28 07:26:03;;;;;;;52.93;28.97;;;6.80;99.90;;;;;;4142405;28;20530;-84
2022/03/28 07:28:09;;;;;;;53.33;28.87;;;6.80;99.90;;;;;;4144171;28;20896;-84
2022/03/28 07:30:12;;;;;;;51.97;27.70;;;6.90;99.90;;;;;;4145225;28;20469;-84
2022/03/28 07:32:15;;;;;;;55.00;29.63;;;6.90;99.90;;;;;;4142458;28;20512;-83
2022/03/28 07:36:37;;;;;;;51.57;28.30;;;7.00;99.90;;;;;;4142432;28;20442;-84
2022/03/28 07:38:39;;;;;;;52.73;27.80;;;7.30;99.90;;;;;;4144647;28;20462;-84
2022/03/28 07:40:43;;;;;;;51.13;28.13;;;7.10;99.90;;;;;;4145009;28;20500;-83
2022/03/28 07:42:46;;;;;;;50.90;27.80;;;7.10;99.90;;;;;;4142300;28;20470;-84
2022/03/28 07:44:48;;;;;;;54.03;30.77;;;7.20;99.90;;;;;;4144774;28;20592;-85
2022/03/28 07:46:50;;;;;;;52.30;29.07;;;7.30;99.90;;;;;;4145802;28;20466;-85
2022/03/28 07:48:51;;;;;;;53.27;28.63;;;7.40;99.90;;;;;;4144647;28;20495;-84
2022/03/28 07:50:55;;;;;;;54.63;29.50;;;7.60;99.90;;;;;;4144336;28;20911;-84
2022/03/28 07:52:58;;;;;;;56.13;30.70;;;7.50;99.90;;;;;;4143136;28;20489;-84
2022/03/28 07:55:01;;;;;;;53.70;28.90;;;7.50;99.90;;;;;;4147963;28;20756;-85
2022/03/28 07:57:03;;;;;;;51.17;29.10;;;7.60;99.90;;;;;;4151469;28;20458;-85
2022/03/28 07:59:05;;;;;;;51.70;28.27;;;7.70;99.90;;;;;;4152864;28;20995;-84
2022/03/28 08:01:10;;;;;;;51.37;28.50;;;7.70;99.90;;;;;;4155330;28;20533;-84
2022/03/28 08:03:12;;;;;;;49.53;27.40;;;7.80;99.90;;;;;;4153593;28;20466;-84
2022/03/28 08:05:14;;;;;;;49.93;27.30;;;7.80;99.90;;;;;;4150840;28;20461;-85
2022/03/28 08:07:15;;;;;;;48.77;26.97;;;7.90;99.90;;;;;;4152208;28;20469;-84
2022/03/28 08:09:19;;;;;;;47.50;26.57;;;7.90;99.90;;;;;;4152383;28;20447;-84
2022/03/28 08:11:21;;;;;;;47.80;27.50;;;8.00;99.90;;;;;;4148937;28;21299;-85
2022/03/28 08:13:23;;;;;;;49.27;26.37;;;8.10;99.90;;;;;;4150635;28;20955;-84
2022/03/28 08:15:25;;;;;;;47.33;26.00;;;8.10;99.90;;;;;;4151169;28;21032;-84
2022/03/28 08:17:26;;;;;;;46.93;26.23;;;8.20;99.90;;;;;;4147262;28;20470;-85
2022/03/28 08:19:30;;;;;;;47.67;25.53;;;8.30;99.90;;;;;;4150351;28;20494;-84
2022/03/28 08:21:32;;;;;;;45.57;26.00;;;8.40;99.90;;;;;;4150888;28;20485;-84
2022/03/28 08:23:34;;;;;;;46.07;26.20;;;8.40;99.90;;;;;;4150504;28;20454;-84
2022/03/28 08:25:37;;;;;;;44.60;24.30;;;8.50;99.90;;;;;;4150926;28;20539;-84
2022/03/28 08:27:39;;;;;;;44.80;24.97;;;8.80;99.90;;;;;;4152439;28;20440;-84
2022/03/28 08:29:40;;;;;;;42.83;24.40;;;8.70;99.90;;;;;;4150501;28;20212;-83
2022/03/28 08:37:51;;;;;;;;;;;;;;;;;;;;;
2022/03/28 08:39:55;;;;;;;42.70;24.43;;;8.90;99.90;;;;;;4124013;28;20578;-85
2022/03/28 08:41:59;;;;;;;37.53;22.07;;;9.30;99.90;;;;;;4143883;28;20288;-85
2022/03/28 08:44:01;;;;;;;39.77;22.57;;;9.30;99.90;;;;;;4159071;28;20243;-84
2022/03/28 08:46:04;;;;;;;35.03;22.43;;;9.40;99.90;;;;;;4158825;28;20216;-85
2022/03/28 08:48:13;;;;;;;40.47;23.30;;;9.40;99.90;;;;;;4151762;28;20220;-84
2022/03/28 08:50:18;;;;;;;37.97;22.07;;;9.60;99.90;;;;;;4140911;28;20243;-85
2022/03/28 08:52:22;;;;;;;34.67;21.40;;;9.70;99.90;;;;;;4141717;28;20240;-85
2022/03/28 08:54:31;;;;;;;34.90;20.47;;;9.90;99.90;;;;;;4140484;28;20216;-84
2022/03/28 08:56:37;;;;;;;34.70;19.83;;;9.90;99.90;;;;;;4138423;28;20524;-84
2022/03/28 08:58:40;;;;;;;34.87;19.90;;;10.00;99.90;;;;;;4140892;28;20221;-84
2022/03/28 09:00:54;;;;;;;31.80;19.40;;;10.20;99.90;;;;;;4140396;28;20459;-85
2022/03/28 09:03:08;;;;;;;33.30;18.93;;;10.30;99.90;;;;;;4137539;28;20626;-85
2022/03/28 09:05:20;;;;;;;30.97;18.57;;;10.40;99.90;;;;;;4137493;28;20232;-85
2022/03/28 09:07:48;;;;;;;30.80;19.00;;;10.50;99.90;;;;;;4139776;28;20820;-85
2022/03/28 09:10:14;;;;;;;30.27;17.90;;;10.70;99.90;;;;;;4138671;28;20211;-85
2022/03/28 09:12:27;;;;;;;28.83;17.60;;;10.70;99.90;;;;;;4138544;28;20218;-85
2022/03/28 09:14:48;;;;;;;28.13;17.17;;;10.80;99.90;;;;;;4139216;28;20220;-85
2022/03/28 09:17:09;;;;;;;30.33;16.77;;;10.90;99.90;;;;;;4139802;28;20237;-84
2022/03/28 09:19:14;;;;;;;27.57;16.47;;;11.10;99.90;;;;;;4140077;28;20215;-85
2022/03/28 09:21:18;;;;;;;26.80;16.97;;;11.20;99.90;;;;;;4140659;28;20261;-85
2022/03/28 09:23:52;;;;;;;29.70;17.07;;;11.40;99.90;;;;;;4140508;28;20210;-85
2022/03/28 09:25:54;;;;;;;24.90;16.20;;;11.50;99.90;;;;;;4143450;28;20763;-85
2022/03/28 09:28:03;;;;;;;26.07;15.93;;;11.60;99.90;;;;;;4138620;28;20214;-84
2022/03/28 09:30:16;;;;;;;26.10;16.00;;;11.70;99.90;;;;;;4143791;28;20202;-84
2022/03/28 09:32:31;;;;;;;26.73;15.73;;;11.70;99.90;;;;;;4140128;28;20625;-85
2022/03/28 09:34:42;;;;;;;27.17;15.70;;;11.80;99.90;;;;;;4143581;28;20298;-84
2022/03/28 09:37:10;;;;;;;24.97;14.87;;;11.90;99.90;;;;;;4138396;28;20240;-85
2022/03/28 09:39:32;;;;;;;25.90;15.07;;;12.00;99.90;;;;;;4140911;28;20219;-85
2022/03/28 09:41:44;;;;;;;23.87;14.33;;;12.10;99.90;;;;;;4142288;28;20325;-84
2022/03/28 09:48:55;;;;;;;24.77;14.70;;;12.30;99.90;;;;;;4141473;28;20212;-84
2022/03/28 09:51:11;;;;;;;24.53;14.17;;;12.40;99.90;;;;;;4142505;28;20243;-84
2022/03/28 09:53:27;;;;;;;23.07;14.10;;;12.40;99.90;;;;;;4138514;28;20218;-84
2022/03/28 09:58:42;;;;;;;20.57;13.27;;;12.70;99.90;;;;;;4115559;28;20207;-84
2022/03/28 10:00:55;;;;;;;24.60;14.80;;;12.80;99.90;;;;;;4138587;28;20778;-84
2022/03/28 10:03:09;;;;;;;18.50;12.33;;;12.90;99.90;;;;;;4141388;28;20234;-85
2022/03/28 10:05:21;;;;;;;21.30;13.67;;;13.00;99.90;;;;;;4139247;28;21018;-84
2022/03/28 10:07:36;;;;;;;22.17;13.13;;;13.10;99.90;;;;;;4150043;28;20271;-84
2022/03/28 10:09:42;;;;;;;19.73;12.60;;;13.20;99.90;;;;;;4140038;28;20616;-84
2022/03/28 10:11:57;;;;;;;20.03;12.13;;;13.20;99.90;;;;;;4135892;28;20242;-83
2022/03/28 10:14:17;;;;;;;19.43;11.43;;;13.30;99.90;;;;;;4141875;28;20253;-84
2022/03/28 10:16:32;;;;;;;19.63;11.63;;;13.40;99.90;;;;;;4138054;28;20245;-83
2022/03/28 10:18:44;;;;;;;16.50;10.20;;;13.50;99.90;;;;;;4140569;28;20215;-83
2022/03/28 10:20:54;;;;;;;17.03;10.47;;;13.60;99.90;;;;;;4140054;28;20301;-90
2022/03/28 10:25:47;;;;;;;20.07;11.07;;;13.80;99.90;;;;;;4144525;28;20287;-85
2022/03/28 10:27:57;;;;;;;15.90;10.07;;;13.80;99.90;;;;;;4135756;28;20217;-84
2022/03/28 10:30:30;;;;;;;14.00;9.40;;;13.90;99.90;;;;;;4142505;28;20208;-81
2022/03/28 10:32:32;;;;;;;17.33;10.20;;;13.90;99.90;;;;;;4141953;28;20216;-81
2022/03/28 10:34:52;;;;;;;16.43;10.10;;;13.90;99.90;;;;;;4132741;28;20264;-82
2022/03/28 10:37:31;;;;;;;17.53;10.53;;;14.00;99.90;;;;;;4135633;28;20295;-81
2022/03/28 10:39:45;;;;;;;18.20;11.00;;;14.10;99.90;;;;;;4140145;28;20248;-81
2022/03/28 10:41:47;;;;;;;17.23;10.83;;;14.20;99.90;;;;;;4144027;28;20708;-82
2022/03/28 10:43:49;;;;;;;16.37;10.50;;;14.30;99.90;;;;;;4147022;28;20785;-82
2022/03/28 10:46:10;;;;;;;18.77;11.87;;;14.30;99.90;;;;;;4142715;28;20297;-80
2022/03/28 10:48:18;;;;;;;20.33;12.03;;;14.50;99.90;;;;;;4146376;28;20303;-81
2022/03/28 10:50:29;;;;;;;21.43;12.60;;;14.50;99.90;;;;;;4148683;28;20222;-81
2022/03/28 10:52:34;;;;;;;22.23;12.53;;;14.60;99.60;;;;;;4149891;28;20208;-81
2022/03/28 10:54:41;;;;;;;18.77;12.50;;;14.70;99.90;;;;;;4147123;28;20230;-81
2022/03/28 10:57:00;;;;;;;21.03;12.90;;;14.70;99.00;;;;;;4147550;28;20249;-81
2022/03/28 10:59:15;;;;;;;19.50;12.63;;;14.80;96.40;;;;;;4140703;28;20330;-81